| Date | Time | Temp. (oF) | Dew Point (oF) | Rel. Hum. (%) | Press. (in.) | Wind Dir. | Wind Speed (mph) | Hourly Rainfall (in.) |
|
|---|---|---|---|---|---|---|---|---|---|
| 1 | 06/22 | 00:00 | 66 | 60 | 82 | 29.75 | S | 0 | 0.00 |
| 2 | 06/21 | 23:00 | 66 | 60 | 83 | 29.75 | S | 0 | 0.00 |
| 3 | 06/21 | 22:00 | 67 | 65 | 94 | 29.73 | S | 0 | 0.00 |
| 4 | 06/21 | 21:00 | 70 | 66 | 89 | 29.70 | SW | 0 | 0.04 |
| 5 | 06/21 | 20:00 | 76 | 73 | 91 | 29.70 | S | 5 | 0.00 |
| 6 | 06/21 | 19:00 | 77 | 73 | 88 | 29.69 | S | 1 | 0.00 |
| 7 | 06/21 | 18:00 | 79 | 73 | 82 | 29.69 | S | 9 | 0.00 |
| 8 | 06/21 | 17:00 | 84 | 69 | 63 | 29.69 | SSW | 6 | 0.00 |
| 9 | 06/21 | 16:00 | 86 | 68 | 57 | 29.70 | S | 5 | 0.00 |
| 10 | 06/21 | 15:00 | 84 | 67 | 58 | 29.71 | NE | 0 | 0.00 |
| 11 | 06/21 | 14:00 | 82 | 68 | 64 | 29.76 | WSW | 0 | 0.00 |
| 12 | 06/21 | 13:00 | 79 | 62 | 57 | 29.80 | NNE | 0 | 0.00 |
| 13 | 06/21 | 12:00 | 81 | 57 | 45 | 29.80 | WSW | 0 | 0.00 |
| 14 | miss | miss | miss | miss | miss | miss | miss | miss | |
| 15 | 06/21 | 11:06 | 81 | 59 | 49 | 29.80 | NE | 0 | 0.00 |
| 16 | miss | miss | miss | miss | miss | miss | miss | miss | |
| 17 | 06/21 | 11:04 | 81 | 59 | 48 | 29.80 | NNE | 3 | 0.00 |
| 18 | miss | miss | miss | miss | miss | miss | miss | miss | |
| 19 | 06/21 | 11:02 | 81 | 58 | 47 | 29.80 | ENE | 6 | 0.00 |
| 20 | miss | miss | miss | miss | miss | miss | miss | miss | |
| 21 | 06/21 | 11:00 | 81 | 59 | 48 | 29.80 | NE | 0 | 0.00 |
| 22 | 06/21 | 10:59 | 81 | 58 | 47 | 29.80 | N | 0 | 0.00 |
| 23 | 06/21 | 10:58 | 81 | 58 | 46 | 29.80 | ENE | 3 | 0.00 |
| 24 | 06/21 | 10:57 | 81 | 56 | 44 | 29.80 | NE | 2 | 0.00 |
| 25 | miss | miss | miss | miss | miss | miss | miss | miss | |
| 26 | 06/21 | 10:56 | 80 | 58 | 48 | 29.80 | NNE | 0 | 0.00 |
| 27 | miss | miss | miss | miss | miss | miss | miss | miss | |
| 28 | 06/21 | 10:56 | 80 | 58 | 48 | 29.80 | NNE | 0 | 0.00 |
| 29 | miss | miss | miss | miss | miss | miss | miss | miss | |
| 30 | 06/21 | 10:56 | 80 | 58 | 48 | 29.80 | NNE | 0 | 0.00 |
| 31 | miss | miss | miss | miss | miss | miss | miss | miss | |
| 32 | 06/21 | 10:56 | 80 | 58 | 48 | 29.80 | NNE | 0 | 0.00 |
| 33 | miss | miss | miss | miss | miss | miss | miss | miss | |
| 34 | 06/21 | 10:56 | 80 | 58 | 48 | 29.80 | NNE | 0 | 0.00 |
| 35 | miss | miss | miss | miss | miss | miss | miss | miss | |
| 36 | 06/21 | 10:56 | 80 | 58 | 48 | 29.80 | NNE | 0 | 0.00 |
| 37 | miss | miss | miss | miss | miss | miss | miss | miss | |
| 38 | 06/21 | 10:56 | 80 | 58 | 48 | 29.80 | NNE | 0 | 0.00 |
| 39 | 06/21 | 10:00 | 74 | 61 | 66 | 29.80 | NNW | 7 | 0.00 |
| 40 | 06/21 | 09:00 | 74 | 61 | 65 | 29.81 | NE | 12 | 0.00 |
| 41 | 06/21 | 08:00 | 77 | 65 | 68 | 29.80 | N | 0 | 0.00 |
| 42 | 06/21 | 07:00 | 76 | 64 | 68 | 29.80 | ENE | 8 | 0.00 |
| 43 | 06/21 | 06:00 | 76 | 64 | 68 | 29.78 | WSW | 3 | 0.00 |
| 44 | 06/21 | 05:00 | 76 | 63 | 66 | 29.76 | SSW | 6 | 0.00 |
| 45 | 06/21 | 04:00 | 76 | 63 | 66 | 29.77 | SSW | 4 | 0.00 |
| 46 | 06/21 | 03:00 | 75 | 61 | 62 | 29.79 | SSW | 3 | 0.00 |
| 47 | 06/21 | 02:00 | 76 | 59 | 57 | 29.79 | S | 4 | 0.00 |
| 48 | 06/21 | 01:00 | 76 | 58 | 54 | 29.81 | S | 4 | 0.00 |
| 49 | 06/21 | 00:00 | 75 | 57 | 55 | 29.83 | S | 0 | -0.04 |
| 50 | 06/20 | 23:00 | 75 | 59 | 59 | 29.86 | S | 3 | 0.00 |
| 51 | 06/20 | 22:00 | 76 | 59 | 57 | 29.87 | SSE | 4 | 0.00 |
| 52 | 06/20 | 21:00 | 79 | 59 | 52 | 29.87 | S | 2 | 0.00 |
| 53 | 06/20 | 20:00 | 81 | 57 | 45 | 29.87 | SSE | 6 | 0.00 |
| 54 | 06/20 | 19:00 | 85 | 57 | 40 | 29.88 | S | 3 | 0.00 |
| 55 | 06/20 | 18:00 | 85 | 57 | 39 | 29.91 | S | 4 | 0.00 |
| 56 | 06/20 | 17:00 | 86 | 54 | 34 | 29.93 | SSE | 10 | 0.00 |
| 57 | 06/20 | 16:00 | 88 | 55 | 34 | 29.96 | SSW | 6 | 0.00 |
| 58 | 06/20 | 15:00 | 87 | 54 | 34 | 29.98 | S | 15 | 0.00 |
| 59 | 06/20 | 14:00 | 86 | 57 | 38 | 30.02 | SE | 3 | 0.00 |
| 60 | 06/20 | 13:00 | 86 | 57 | 39 | 30.05 | SSE | 2 | 0.00 |
| 61 | 06/20 | 12:00 | 85 | 57 | 40 | 30.09 | NNE | 0 | 0.00 |
| 62 | 06/20 | 11:00 | 82 | 58 | 45 | 30.11 | N | 0 | 0.00 |
| 63 | 06/20 | 10:00 | 78 | 59 | 53 | 30.13 | SSW | 5 | 0.00 |
| 64 | 06/20 | 09:00 | 72 | 58 | 63 | 30.14 | NNE | 4 | 0.00 |
| 65 | 06/20 | 08:00 | 65 | 59 | 82 | 30.14 | S | 0 | 0.00 |
| 66 | 06/20 | 07:00 | 61 | 56 | 86 | 30.15 | ENE | 0 | 0.00 |
| 67 | 06/20 | 06:00 | 59 | 54 | 85 | 30.15 | SSE | 0 | 0.00 |
| 68 | 06/20 | 05:00 | 60 | 54 | 82 | 30.15 | ENE | 0 | 0.00 |
| 69 | 06/20 | 04:00 | 61 | 54 | 79 | 30.13 | N | 0 | 0.00 |
| 70 | 06/20 | 03:00 | 62 | 54 | 76 | 30.13 | NNW | 0 | 0.00 |
| 71 | 06/20 | 02:00 | 64 | 55 | 73 | 30.13 | WSW | 0 | 0.00 |
| 72 | 06/20 | 01:00 | 66 | 55 | 68 | 30.15 | WSW | 0 | 0.00 |
| 73 | 06/20 | 00:00 | 69 | 54 | 60 | 30.16 | WSW | 0 | 0.00 |